createdAt,value
2023-05-02T00:00:33.207Z,23.34
2023-05-02T00:01:33.252Z,23.32
2023-05-02T00:02:33.446Z,23.34
2023-05-02T00:03:33.386Z,23.33
2023-05-02T00:04:33.550Z,23.35
2023-05-02T00:05:33.398Z,23.34
2023-05-02T00:06:33.449Z,23.33
2023-05-02T00:07:33.467Z,23.34
2023-05-02T00:08:33.494Z,23.33
2023-05-02T00:09:33.542Z,23.33
2023-05-02T00:10:33.586Z,23.32
2023-05-02T00:11:33.607Z,23.33
2023-05-02T00:12:33.651Z,23.33
2023-05-02T00:13:33.689Z,23.33
2023-05-02T00:14:33.736Z,23.34
2023-05-02T00:15:33.817Z,23.32
2023-05-02T00:16:33.887Z,23.32
2023-05-02T00:17:33.918Z,23.32
2023-05-02T00:18:33.905Z,23.32
2023-05-02T00:19:33.997Z,23.32
2023-05-02T00:20:33.997Z,23.32
2023-05-02T00:21:34.099Z,23.32
2023-05-02T00:22:34.064Z,23.32
2023-05-02T00:23:34.115Z,23.33
2023-05-02T00:24:34.135Z,23.32
2023-05-02T00:25:34.169Z,23.32
2023-05-02T00:26:34.218Z,23.32
2023-05-02T00:27:34.284Z,23.34
2023-05-02T00:28:34.328Z,23.31
2023-05-02T00:29:34.358Z,23.33
2023-05-02T00:30:34.402Z,23.33
2023-05-02T00:31:34.602Z,23.34
2023-05-02T00:32:34.512Z,23.32
2023-05-02T00:33:34.574Z,23.32
2023-05-02T00:34:34.593Z,23.32
2023-05-02T00:35:34.646Z,23.32
2023-05-02T00:36:34.820Z,23.32
2023-05-02T00:37:34.752Z,23.33
2023-05-02T00:38:34.756Z,23.32
2023-05-02T00:39:34.804Z,23.32
2023-05-02T00:40:34.834Z,23.30
2023-05-02T00:41:34.985Z,23.31
2023-05-02T00:42:35.037Z,23.31
2023-05-02T00:43:35.044Z,23.32
2023-05-02T00:44:35.025Z,23.32
2023-05-02T00:45:35.044Z,23.32
2023-05-02T00:46:35.125Z,23.30
2023-05-02T00:47:35.160Z,23.32
2023-05-02T00:48:35.182Z,23.30
2023-05-02T00:49:35.220Z,23.31
2023-05-02T00:50:35.255Z,23.30
2023-05-02T00:51:35.322Z,23.31
2023-05-02T00:52:35.368Z,23.31
2023-05-02T00:53:35.395Z,23.32
2023-05-02T00:54:35.433Z,23.33
2023-05-02T00:55:35.429Z,23.30
2023-05-02T00:56:35.462Z,23.32
2023-05-02T00:57:35.479Z,23.29
2023-05-02T00:58:35.502Z,23.30
2023-05-02T00:59:35.510Z,23.30
2023-05-02T01:00:35.527Z,23.30
2023-05-02T01:01:35.616Z,23.30
2023-05-02T01:02:35.625Z,23.30
2023-05-02T01:03:35.686Z,23.29
2023-05-02T01:04:35.611Z,23.30
2023-05-02T01:05:35.627Z,23.30
2023-05-02T01:06:35.698Z,23.30
2023-05-02T01:07:35.677Z,23.29
2023-05-02T01:08:35.678Z,23.29
2023-05-02T01:09:35.706Z,23.30
2023-05-02T01:10:35.735Z,23.30
2023-05-02T01:11:35.762Z,23.30
2023-05-02T01:12:35.781Z,23.32
2023-05-02T01:13:35.768Z,23.31
2023-05-02T01:14:35.792Z,23.31
2023-05-02T01:15:35.819Z,23.31
2023-05-02T01:16:35.889Z,23.30
2023-05-02T01:17:35.890Z,23.30
2023-05-02T01:18:35.884Z,23.30
2023-05-02T01:19:35.914Z,23.30
2023-05-02T01:20:35.933Z,23.31
2023-05-02T01:21:35.970Z,23.29
2023-05-02T01:22:35.998Z,23.29
2023-05-02T01:23:36.005Z,23.28
2023-05-02T01:24:36.058Z,23.28
2023-05-02T01:25:36.163Z,23.28
2023-05-02T01:26:36.098Z,23.28
2023-05-02T01:27:36.225Z,23.28
2023-05-02T01:28:36.099Z,23.28
2023-05-02T01:29:36.124Z,23.27
2023-05-02T01:30:36.127Z,23.28
2023-05-02T01:31:36.265Z,23.28
2023-05-02T01:32:36.199Z,23.29
2023-05-02T01:33:36.181Z,23.29
2023-05-02T01:34:36.737Z,23.27
2023-05-02T01:35:36.217Z,23.29
2023-05-02T01:36:36.263Z,23.27
2023-05-02T01:37:36.249Z,23.26
2023-05-02T01:38:36.310Z,23.26
2023-05-02T01:39:36.289Z,23.25
2023-05-02T01:40:36.311Z,23.26
2023-05-02T01:41:36.361Z,23.27
2023-05-02T01:42:36.390Z,23.28
2023-05-02T01:43:36.454Z,23.27
2023-05-02T01:44:36.526Z,23.28
2023-05-02T01:45:36.521Z,23.27
2023-05-02T01:46:36.571Z,23.26
2023-05-02T01:47:36.639Z,23.28
2023-05-02T01:48:36.607Z,23.27
2023-05-02T01:49:36.605Z,23.27
2023-05-02T01:50:36.660Z,23.28
2023-05-02T01:51:36.651Z,23.28
2023-05-02T01:52:36.670Z,23.29
2023-05-02T01:53:36.694Z,23.29
2023-05-02T01:54:36.724Z,23.28
2023-05-02T01:55:36.727Z,23.28
2023-05-02T01:56:36.807Z,23.29
2023-05-02T01:57:36.773Z,23.27
2023-05-02T01:58:36.780Z,23.28
2023-05-02T01:59:36.818Z,23.28
2023-05-02T02:00:38.047Z,23.27
2023-05-02T02:01:36.942Z,23.28
2023-05-02T02:02:36.857Z,23.28
2023-05-02T02:03:36.915Z,23.28
2023-05-02T02:04:36.992Z,23.28
2023-05-02T02:05:36.906Z,23.28
2023-05-02T02:06:36.952Z,23.27
2023-05-02T02:07:36.954Z,23.28
2023-05-02T02:08:37.003Z,23.28
2023-05-02T02:09:37.063Z,23.28
2023-05-02T02:10:37.113Z,23.27
2023-05-02T02:11:37.132Z,23.29
2023-05-02T02:12:37.201Z,23.30
2023-05-02T02:13:37.235Z,23.29
2023-05-02T02:14:37.299Z,23.27
2023-05-02T02:15:37.323Z,23.28
2023-05-02T02:16:37.414Z,23.29
2023-05-02T02:17:37.425Z,23.29
2023-05-02T02:18:37.483Z,23.28
2023-05-02T02:19:37.546Z,23.28
2023-05-02T02:20:37.561Z,23.27
2023-05-02T02:21:37.626Z,23.26
2023-05-02T02:22:37.667Z,23.27
2023-05-02T02:23:37.741Z,23.29
2023-05-02T02:24:37.764Z,23.29
2023-05-02T02:25:37.810Z,23.29
2023-05-02T02:26:37.872Z,23.29
2023-05-02T02:27:37.919Z,23.29
2023-05-02T02:28:37.971Z,23.28
2023-05-02T02:29:38.017Z,23.27
2023-05-02T02:30:38.107Z,23.27
2023-05-02T02:31:38.130Z,23.26
2023-05-02T02:32:38.223Z,23.27
2023-05-02T02:33:38.225Z,23.27
2023-05-02T02:34:38.291Z,23.26
2023-05-02T02:35:38.324Z,23.27
2023-05-02T02:36:38.392Z,23.26
2023-05-02T02:37:38.405Z,23.27
2023-05-02T02:38:38.485Z,23.27
2023-05-02T02:39:38.547Z,23.28
2023-05-02T02:40:38.585Z,23.27
2023-05-02T02:41:38.646Z,23.27
2023-05-02T02:42:38.686Z,23.26
2023-05-02T02:43:38.765Z,23.25
2023-05-02T02:44:38.799Z,23.25
2023-05-02T02:45:38.844Z,23.26
2023-05-02T02:46:38.965Z,23.25
2023-05-02T02:47:39.074Z,23.27
2023-05-02T02:48:39.000Z,23.27
2023-05-02T02:49:39.043Z,23.26
2023-05-02T02:50:39.103Z,23.25
2023-05-02T02:51:39.162Z,23.25
2023-05-02T02:52:39.197Z,23.25
2023-05-02T02:53:39.303Z,23.27
2023-05-02T02:54:39.311Z,23.27
2023-05-02T02:55:39.371Z,23.27
2023-05-02T02:56:39.491Z,23.28
2023-05-02T02:57:39.459Z,23.26
2023-05-02T02:58:39.513Z,23.25
2023-05-02T02:59:39.713Z,23.27
2023-05-02T03:00:39.616Z,23.28
2023-05-02T03:01:39.668Z,23.27
2023-05-02T03:02:39.761Z,23.26
2023-05-02T03:03:39.791Z,23.25
2023-05-02T03:04:39.766Z,23.27
2023-05-02T03:05:39.791Z,23.27
2023-05-02T03:06:39.886Z,23.28
2023-05-02T03:07:39.876Z,23.27
2023-05-02T03:08:39.887Z,23.27
2023-05-02T03:09:39.922Z,23.28
2023-05-02T03:10:39.986Z,23.28
2023-05-02T03:11:40.010Z,23.27
2023-05-02T03:12:40.194Z,23.26
2023-05-02T03:13:40.091Z,23.28
2023-05-02T03:14:40.140Z,23.27
2023-05-02T03:15:40.151Z,23.27
2023-05-02T03:16:40.309Z,23.27
2023-05-02T03:17:40.250Z,23.26
2023-05-02T03:18:40.275Z,23.26
2023-05-02T03:19:40.298Z,23.26
2023-05-02T03:20:40.364Z,23.27
2023-05-02T03:21:40.390Z,23.27
2023-05-02T03:22:40.420Z,23.26
2023-05-02T03:23:40.456Z,23.28
2023-05-02T03:24:40.503Z,23.27
2023-05-02T03:25:40.526Z,23.27
2023-05-02T03:26:40.555Z,23.27
2023-05-02T03:27:40.605Z,23.28
2023-05-02T03:28:40.639Z,23.28
2023-05-02T03:29:40.632Z,23.28
2023-05-02T03:30:40.686Z,23.29
2023-05-02T03:31:40.704Z,23.28
2023-05-02T03:32:40.786Z,23.28
2023-05-02T03:33:40.765Z,23.27
2023-05-02T03:34:40.799Z,23.27
2023-05-02T03:35:40.825Z,23.26
2023-05-02T03:36:40.905Z,23.26
2023-05-02T03:37:40.939Z,23.25
2023-05-02T03:38:40.996Z,23.26
2023-05-02T03:39:41.052Z,23.26
2023-05-02T03:40:41.091Z,23.27
2023-05-02T03:41:41.169Z,23.27
2023-05-02T03:42:41.188Z,23.27
2023-05-02T03:43:41.292Z,23.26
2023-05-02T03:44:41.291Z,23.27
2023-05-02T03:45:41.350Z,23.27
2023-05-02T03:46:41.436Z,23.27
2023-05-02T03:47:41.493Z,23.27
2023-05-02T03:48:41.491Z,23.26
2023-05-02T03:49:41.535Z,23.27
2023-05-02T03:50:41.603Z,23.26
2023-05-02T03:51:41.648Z,23.26
2023-05-02T03:52:41.685Z,23.26
2023-05-02T03:53:41.727Z,23.26
2023-05-02T03:54:41.782Z,23.26
2023-05-02T03:55:41.829Z,23.27
2023-05-02T03:56:42.815Z,23.27
2023-05-02T03:57:41.939Z,23.26
2023-05-02T03:58:41.978Z,23.27
2023-05-02T03:59:42.085Z,23.26
2023-05-02T04:00:42.067Z,23.27
2023-05-02T04:01:42.228Z,23.26
2023-05-02T04:02:42.365Z,23.27
2023-05-02T04:03:42.313Z,23.27
2023-05-02T04:04:42.332Z,23.27
2023-05-02T04:05:42.305Z,23.27
2023-05-02T04:06:42.395Z,23.27
2023-05-02T04:07:42.412Z,23.27
2023-05-02T04:08:42.473Z,23.27
2023-05-02T04:09:42.504Z,23.26
2023-05-02T04:10:42.555Z,23.26
2023-05-02T04:11:42.610Z,23.27
2023-05-02T04:12:42.657Z,23.27
2023-05-02T04:13:42.713Z,23.28
2023-05-02T04:14:42.753Z,23.27
2023-05-02T04:15:42.833Z,23.27
2023-05-02T04:16:42.891Z,23.27
2023-05-02T04:17:42.942Z,23.27
2023-05-02T04:18:42.949Z,23.27
2023-05-02T04:19:43.073Z,23.27
2023-05-02T04:20:43.051Z,23.26
2023-05-02T04:21:43.108Z,23.26
2023-05-02T04:22:43.141Z,23.27
2023-05-02T04:23:43.204Z,23.26
2023-05-02T04:24:43.260Z,23.27
2023-05-02T04:25:43.316Z,23.27
2023-05-02T04:26:43.383Z,23.25
2023-05-02T04:27:43.433Z,23.26
2023-05-02T04:28:43.465Z,23.25
2023-05-02T04:29:43.522Z,23.25
2023-05-02T04:30:43.580Z,23.26
2023-05-02T04:31:43.684Z,23.25
2023-05-02T04:32:43.681Z,23.25
2023-05-02T04:33:43.734Z,23.26
2023-05-02T04:34:43.783Z,23.26
2023-05-02T04:35:43.837Z,23.26
2023-05-02T04:36:43.920Z,23.25
2023-05-02T04:37:43.948Z,23.26
2023-05-02T04:38:43.992Z,23.26
2023-05-02T04:39:44.047Z,23.27
2023-05-02T04:40:44.088Z,23.28
2023-05-02T04:41:44.149Z,23.27
2023-05-02T04:42:44.227Z,23.27
2023-05-02T04:43:44.228Z,23.25
2023-05-02T04:44:44.305Z,23.26
2023-05-02T04:45:44.359Z,23.27
2023-05-02T04:46:44.525Z,23.27
2023-05-02T04:47:44.579Z,23.28
2023-05-02T04:48:44.483Z,23.27
2023-05-02T04:49:44.541Z,23.26
2023-05-02T04:50:44.602Z,23.27
2023-05-02T04:51:44.650Z,23.27
2023-05-02T04:52:44.695Z,23.26
2023-05-02T04:53:44.774Z,23.27
2023-05-02T04:54:44.794Z,23.27
2023-05-02T04:55:44.841Z,23.26
2023-05-02T04:56:44.873Z,23.26
2023-05-02T04:57:44.940Z,23.26
2023-05-02T04:58:44.970Z,23.26
2023-05-02T04:59:45.049Z,23.28
2023-05-02T05:00:45.076Z,23.27
2023-05-02T05:01:45.138Z,23.27
2023-05-02T05:02:45.265Z,23.28
2023-05-02T05:03:45.334Z,23.27
2023-05-02T05:04:45.257Z,23.26
2023-05-02T05:05:45.332Z,23.28
2023-05-02T05:06:45.413Z,23.28
2023-05-02T05:07:45.461Z,23.28
2023-05-02T05:08:45.490Z,23.28
2023-05-02T05:09:45.475Z,23.28
2023-05-02T05:10:45.507Z,23.27
2023-05-02T05:11:45.597Z,23.28
2023-05-02T05:12:45.606Z,23.28
2023-05-02T05:13:45.574Z,23.27
2023-05-02T05:14:45.609Z,23.28
2023-05-02T05:15:45.758Z,23.28
2023-05-02T05:16:45.777Z,23.27
2023-05-02T05:17:45.711Z,23.26
2023-05-02T05:18:45.716Z,23.27
2023-05-02T05:19:45.755Z,23.28
2023-05-02T05:20:45.764Z,23.27
2023-05-02T05:21:45.797Z,23.28
2023-05-02T05:22:45.805Z,23.28
2023-05-02T05:23:45.863Z,23.28
2023-05-02T05:24:45.863Z,23.29
2023-05-02T05:25:46.060Z,23.28
2023-05-02T05:26:45.931Z,23.28
2023-05-02T05:27:45.949Z,23.28
2023-05-02T05:28:45.969Z,23.28
2023-05-02T05:29:46.095Z,23.29
2023-05-02T05:30:46.105Z,23.28
2023-05-02T05:31:46.139Z,23.29
2023-05-02T05:32:46.137Z,23.29
2023-05-02T05:33:46.120Z,23.30
2023-05-02T05:34:46.223Z,23.29
2023-05-02T05:35:46.196Z,23.24
2023-05-02T05:36:46.225Z,23.25
2023-05-02T05:37:46.262Z,23.25
2023-05-02T05:38:46.398Z,23.26
2023-05-02T05:39:46.287Z,23.29
2023-05-02T05:40:46.314Z,23.30
2023-05-02T05:41:46.362Z,23.27
2023-05-02T05:42:47.341Z,23.28
2023-05-02T05:43:46.477Z,23.33
2023-05-02T05:44:46.440Z,23.37
2023-05-02T05:45:46.421Z,23.42
2023-05-02T05:46:46.496Z,23.45
2023-05-02T05:47:46.549Z,23.49
2023-05-02T05:48:46.498Z,23.52
2023-05-02T05:49:46.537Z,23.56
2023-05-02T05:50:46.575Z,23.57
2023-05-02T05:51:46.614Z,23.61
2023-05-02T05:52:46.562Z,23.64
2023-05-02T05:53:46.667Z,23.68
2023-05-02T05:54:46.642Z,23.72
2023-05-02T05:55:46.707Z,23.76
2023-05-02T05:56:46.642Z,23.79
2023-05-02T05:57:47.441Z,23.82
